Victorville, CA (92392)

7:05 PM PDT on October 01, 2014 (GMT -0700)
Victorville, Ca | Change Station
CLOSE
Current Station
Personal Weather Station
Location: Victorville, CA
Elevation: 2986 ft
Nearby Weather Stations

Elev 2986 ft 34.50 °N, 117.32 °W | Updated 1 minute ago

Clear
Clear
74.5 °F
Feels Like 73 °F
N
1.3
Wind Variable Wind from ENE
Gusts 1.3 mph

Today
High -- | Low -- °F
--% Chance of Precip.
Yesterday
High -- | Low -- °F
Precip. -- in
6:44 AM 6:33 PM
First Quarter, 53% visible
Pressure 29.95 in
Visibility 10.0 miles
Clouds Clear
Heat Index 73 °F
Dew Point 12 °F
Humidity 3%
Rainfall 0.00 in
Snow Depth 0 in , 0 in , 0 in
UV 0 out of 12
Pollen 5.50 out of 12
Ozone Good
Flu Activity Not available.
METAR KVCV 020155Z AUTO 05008KT 10SM CLR 25/M02 A2995 RMK AO2

More Conditions Fewer Conditions

Pressure 29.95 in
Visibility 10.0 miles
Clouds Clear
Heat Index 73 °F
Dew Point 12 °F
Humidity 3%
Rainfall 0.00 in
Snow Depth 0 in , 0 in , 0 in
UV 0 out of 12
Pollen 5.50 out of 12
Ozone Good
Flu Activity Not available.
METAR KVCV 020155Z AUTO 05008KT 10SM CLR 25/M02 A2995 RMK AO2

More Conditions Fewer Conditions

10-Day Weather Forecast

Almanac

Astronomy

Oct. 01, 2014 Rise Set
Actual Time 6:44 AM PDT 6:33 PM PDT
Civil Twilight 6:18 AM PDT 6:58 PM PDT
Nautical Twilight 5:49 AM PDT 7:27 PM PDT
Astronomical Twilight 5:20 AM PDT 7:56 PM PDT
Moon 1:38 PM PDT (10/1) No Moon Set
Length of Visible Light 12h 39m
Length of Day
11h 49m
Tomorrow will be 2m 7s shorter.
First Quarter, 53% of the Moon is Illuminated
Today
First Quarter
Oct 8
Full
Oct 15
Last Quarter
Oct 23
New
Oct 30
First Quarter

Today's Extremes

State Highs State Lows

Community

WunderPhotos

Upload Photos

1,758,124 photos uploaded!

WunderBlogs® & News

Nearby

Air Quality

  Air Quality AQ Index Pollutant
Yesterday Moderate
OZONE
Yesterday Good
PM10
Current Good
OZONE
Thursday Good
PM10
Thursday Good
OZONE
Thursday Good
CO
Thursday Good
NO2

Snow Depth

Station Depth Elevation
Leavitt Lake 0 in 9400 ft
Summit Meadow 0 in 9122 ft
Tahoe City Cross 0 in 6750 ft
CSS Lab 0 in 6900 ft
Rubicon #2 0 in 7500 ft

Earthquake Activity

City Distance Mag. Time & Date
Avalon, California 108 miles 2.6 1:28 PM PDT
2014-09-30
Minimum magnitude displayed is 2.5.

Coastal Water Temperatures

Place Temperature
No Stations Reporting

Nearby Weather Stations